sensor_id;sensor_type;location;lat;lon;timestamp;P1;durP1;ratioP1;P2;durP2;ratioP2
39452;SDS011;25154;-33.684;151.102;2022-11-15T00:04:34;0.35;;;0.35;;
39452;SDS011;25154;-33.684;151.102;2022-11-15T00:09:37;1.05;;;0.50;;
39452;SDS011;25154;-33.684;151.102;2022-11-15T00:14:39;0.50;;;0.32;;
39452;SDS011;25154;-33.684;151.102;2022-11-15T00:19:44;0.65;;;0.45;;
39452;SDS011;25154;-33.684;151.102;2022-11-15T00:24:46;0.47;;;0.47;;
39452;SDS011;25154;-33.684;151.102;2022-11-15T00:29:48;1.08;;;0.40;;
39452;SDS011;25154;-33.684;151.102;2022-11-15T00:34:51;0.43;;;0.40;;
39452;SDS011;25154;-33.684;151.102;2022-11-15T00:39:53;0.52;;;0.40;;
39452;SDS011;25154;-33.684;151.102;2022-11-15T00:44:57;0.50;;;0.50;;
39452;SDS011;25154;-33.684;151.102;2022-11-15T00:49:59;0.40;;;0.40;;
39452;SDS011;25154;-33.684;151.102;2022-11-15T00:55:01;0.40;;;0.40;;
39452;SDS011;25154;-33.684;151.102;2022-11-15T01:00:04;2.38;;;0.52;;
39452;SDS011;25154;-33.684;151.102;2022-11-15T01:05:07;0.80;;;0.50;;
39452;SDS011;25154;-33.684;151.102;2022-11-15T01:10:10;1.10;;;0.40;;
39452;SDS011;25154;-33.684;151.102;2022-11-15T01:15:12;1.85;;;0.45;;
39452;SDS011;25154;-33.684;151.102;2022-11-15T01:20:14;0.88;;;0.52;;
39452;SDS011;25154;-33.684;151.102;2022-11-15T01:25:17;0.85;;;0.55;;
39452;SDS011;25154;-33.684;151.102;2022-11-15T01:30:19;0.80;;;0.40;;
39452;SDS011;25154;-33.684;151.102;2022-11-15T01:35:21;2.45;;;0.65;;
39452;SDS011;25154;-33.684;151.102;2022-11-15T01:40:25;0.45;;;0.45;;
39452;SDS011;25154;-33.684;151.102;2022-11-15T01:45:28;0.70;;;0.60;;
39452;SDS011;25154;-33.684;151.102;2022-11-15T01:50:31;0.50;;;0.50;;
39452;SDS011;25154;-33.684;151.102;2022-11-15T01:55:34;0.40;;;0.40;;
39452;SDS011;25154;-33.684;151.102;2022-11-15T02:00:37;1.75;;;0.68;;
39452;SDS011;25154;-33.684;151.102;2022-11-15T02:05:40;0.40;;;0.40;;
39452;SDS011;25154;-33.684;151.102;2022-11-15T02:10:44;0.50;;;0.50;;
39452;SDS011;25154;-33.684;151.102;2022-11-15T02:21:14;0.52;;;0.45;;
39452;SDS011;25154;-33.684;151.102;2022-11-15T02:32:15;1.02;;;0.45;;
39452;SDS011;25154;-33.684;151.102;2022-11-15T02:42:49;6.65;;;2.20;;
39452;SDS011;25154;-33.684;151.102;2022-11-15T02:48:19;6.15;;;1.45;;
39452;SDS011;25154;-33.684;151.102;2022-11-15T02:53:24;5.45;;;1.80;;
39452;SDS011;25154;-33.684;151.102;2022-11-15T03:14:36;5.60;;;1.30;;
39452;SDS011;25154;-33.684;151.102;2022-11-15T03:20:07;10.25;;;1.83;;
39452;SDS011;25154;-33.684;151.102;2022-11-15T03:25:16;9.93;;;1.92;;
39452;SDS011;25154;-33.684;151.102;2022-11-15T03:30:21;8.10;;;1.60;;
39452;SDS011;25154;-33.684;151.102;2022-11-15T03:35:25;9.32;;;1.92;;
39452;SDS011;25154;-33.684;151.102;2022-11-15T03:40:37;8.45;;;1.50;;
39452;SDS011;25154;-33.684;151.102;2022-11-15T03:45:47;6.00;;;1.50;;
39452;SDS011;25154;-33.684;151.102;2022-11-15T03:50:56;5.97;;;1.20;;
39452;SDS011;25154;-33.684;151.102;2022-11-15T03:55:58;4.80;;;1.20;;
39452;SDS011;25154;-33.684;151.102;2022-11-15T04:01:00;5.55;;;1.23;;
39452;SDS011;25154;-33.684;151.102;2022-11-15T04:06:03;5.38;;;1.30;;
39452;SDS011;25154;-33.684;151.102;2022-11-15T04:11:05;5.03;;;1.20;;
39452;SDS011;25154;-33.684;151.102;2022-11-15T04:16:08;5.35;;;1.52;;
39452;SDS011;25154;-33.684;151.102;2022-11-15T04:21:11;9.10;;;1.38;;
39452;SDS011;25154;-33.684;151.102;2022-11-15T04:26:32;10.32;;;2.20;;
39452;SDS011;25154;-33.684;151.102;2022-11-15T04:31:35;6.18;;;1.60;;
39452;SDS011;25154;-33.684;151.102;2022-11-15T04:36:38;6.70;;;1.40;;
39452;SDS011;25154;-33.684;151.102;2022-11-15T04:41:59;7.20;;;1.60;;
39452;SDS011;25154;-33.684;151.102;2022-11-15T04:47:02;4.22;;;1.27;;
39452;SDS011;25154;-33.684;151.102;2022-11-15T04:52:05;4.38;;;1.33;;
39452;SDS011;25154;-33.684;151.102;2022-11-15T04:57:07;6.15;;;1.83;;
39452;SDS011;25154;-33.684;151.102;2022-11-15T05:02:11;5.50;;;1.70;;
39452;SDS011;25154;-33.684;151.102;2022-11-15T05:07:14;3.88;;;1.33;;
39452;SDS011;25154;-33.684;151.102;2022-11-15T05:12:16;4.57;;;1.30;;
39452;SDS011;25154;-33.684;151.102;2022-11-15T05:17:21;6.57;;;1.95;;
39452;SDS011;25154;-33.684;151.102;2022-11-15T05:22:24;4.75;;;1.52;;
39452;SDS011;25154;-33.684;151.102;2022-11-15T05:27:27;5.32;;;1.48;;
39452;SDS011;25154;-33.684;151.102;2022-11-15T05:32:29;5.50;;;1.50;;
39452;SDS011;25154;-33.684;151.102;2022-11-15T05:37:32;7.82;;;1.42;;
39452;SDS011;25154;-33.684;151.102;2022-11-15T05:42:34;9.50;;;1.60;;
39452;SDS011;25154;-33.684;151.102;2022-11-15T05:47:37;7.00;;;1.40;;
39452;SDS011;25154;-33.684;151.102;2022-11-15T05:52:40;5.40;;;1.52;;
39452;SDS011;25154;-33.684;151.102;2022-11-15T05:57:43;5.50;;;1.73;;
39452;SDS011;25154;-33.684;151.102;2022-11-15T06:02:46;6.32;;;1.25;;
39452;SDS011;25154;-33.684;151.102;2022-11-15T06:07:49;7.33;;;1.10;;
39452;SDS011;25154;-33.684;151.102;2022-11-15T06:12:59;6.68;;;1.30;;
39452;SDS011;25154;-33.684;151.102;2022-11-15T06:18:04;7.20;;;1.30;;
39452;SDS011;25154;-33.684;151.102;2022-11-15T06:23:08;12.18;;;1.40;;
39452;SDS011;25154;-33.684;151.102;2022-11-15T06:28:13;4.80;;;1.45;;
39452;SDS011;25154;-33.684;151.102;2022-11-15T06:33:16;7.38;;;1.60;;
39452;SDS011;25154;-33.684;151.102;2022-11-15T06:38:21;4.22;;;1.23;;
39452;SDS011;25154;-33.684;151.102;2022-11-15T06:43:25;7.07;;;1.40;;
39452;SDS011;25154;-33.684;151.102;2022-11-15T06:48:29;8.38;;;1.10;;
39452;SDS011;25154;-33.684;151.102;2022-11-15T06:53:34;6.40;;;1.38;;
39452;SDS011;25154;-33.684;151.102;2022-11-15T06:58:37;9.30;;;1.45;;
39452;SDS011;25154;-33.684;151.102;2022-11-15T07:03:42;8.35;;;1.67;;
39452;SDS011;25154;-33.684;151.102;2022-11-15T07:08:47;12.98;;;2.17;;
39452;SDS011;25154;-33.684;151.102;2022-11-15T07:13:51;6.13;;;1.40;;
39452;SDS011;25154;-33.684;151.102;2022-11-15T07:18:56;5.97;;;1.23;;
39452;SDS011;25154;-33.684;151.102;2022-11-15T07:24:01;8.18;;;1.30;;
39452;SDS011;25154;-33.684;151.102;2022-11-15T07:29:05;11.95;;;1.80;;
39452;SDS011;25154;-33.684;151.102;2022-11-15T07:34:09;7.82;;;1.88;;
39452;SDS011;25154;-33.684;151.102;2022-11-15T07:39:12;8.80;;;1.30;;
39452;SDS011;25154;-33.684;151.102;2022-11-15T07:44:15;6.00;;;1.65;;
39452;SDS011;25154;-33.684;151.102;2022-11-15T07:49:18;5.88;;;1.55;;
39452;SDS011;25154;-33.684;151.102;2022-11-15T07:54:20;9.82;;;2.60;;
39452;SDS011;25154;-33.684;151.102;2022-11-15T07:59:23;10.27;;;1.73;;
39452;SDS011;25154;-33.684;151.102;2022-11-15T08:04:26;11.02;;;1.85;;
39452;SDS011;25154;-33.684;151.102;2022-11-15T08:09:30;9.93;;;1.67;;
39452;SDS011;25154;-33.684;151.102;2022-11-15T08:14:32;14.18;;;2.65;;
39452;SDS011;25154;-33.684;151.102;2022-11-15T08:19:36;9.88;;;1.92;;
39452;SDS011;25154;-33.684;151.102;2022-11-15T08:24:39;11.98;;;1.95;;
39452;SDS011;25154;-33.684;151.102;2022-11-15T08:29:43;7.72;;;1.92;;
39452;SDS011;25154;-33.684;151.102;2022-11-15T08:34:46;7.05;;;2.03;;
39452;SDS011;25154;-33.684;151.102;2022-11-15T08:39:48;8.05;;;1.73;;
39452;SDS011;25154;-33.684;151.102;2022-11-15T08:44:50;6.50;;;1.88;;
39452;SDS011;25154;-33.684;151.102;2022-11-15T08:49:53;5.85;;;1.42;;
39452;SDS011;25154;-33.684;151.102;2022-11-15T08:54:55;11.05;;;2.50;;
39452;SDS011;25154;-33.684;151.102;2022-11-15T08:59:57;8.45;;;1.73;;
39452;SDS011;25154;-33.684;151.102;2022-11-15T09:05:00;7.63;;;1.75;;
39452;SDS011;25154;-33.684;151.102;2022-11-15T09:10:02;8.77;;;1.80;;
39452;SDS011;25154;-33.684;151.102;2022-11-15T09:15:05;15.05;;;2.00;;
39452;SDS011;25154;-33.684;151.102;2022-11-15T09:20:08;13.70;;;2.03;;
39452;SDS011;25154;-33.684;151.102;2022-11-15T09:25:11;8.48;;;2.47;;
39452;SDS011;25154;-33.684;151.102;2022-11-15T09:30:15;4.82;;;1.67;;
39452;SDS011;25154;-33.684;151.102;2022-11-15T09:35:17;10.15;;;1.90;;
39452;SDS011;25154;-33.684;151.102;2022-11-15T09:40:20;11.05;;;1.83;;
39452;SDS011;25154;-33.684;151.102;2022-11-15T09:45:28;12.80;;;1.77;;
39452;SDS011;25154;-33.684;151.102;2022-11-15T09:50:49;9.52;;;2.15;;
39452;SDS011;25154;-33.684;151.102;2022-11-15T09:56:00;9.13;;;1.65;;
39452;SDS011;25154;-33.684;151.102;2022-11-15T10:01:09;10.10;;;2.08;;
39452;SDS011;25154;-33.684;151.102;2022-11-15T10:06:25;8.87;;;1.67;;
39452;SDS011;25154;-33.684;151.102;2022-11-15T10:11:30;8.35;;;2.13;;
39452;SDS011;25154;-33.684;151.102;2022-11-15T10:16:51;9.48;;;1.50;;
39452;SDS011;25154;-33.684;151.102;2022-11-15T10:27:19;9.68;;;1.40;;
39452;SDS011;25154;-33.684;151.102;2022-11-15T10:32:22;9.18;;;1.70;;
39452;SDS011;25154;-33.684;151.102;2022-11-15T10:37:28;6.85;;;1.60;;
39452;SDS011;25154;-33.684;151.102;2022-11-15T10:42:32;9.85;;;1.40;;
39452;SDS011;25154;-33.684;151.102;2022-11-15T10:47:34;9.73;;;1.67;;
39452;SDS011;25154;-33.684;151.102;2022-11-15T10:52:37;7.72;;;1.50;;
39452;SDS011;25154;-33.684;151.102;2022-11-15T10:57:52;10.00;;;1.80;;
39452;SDS011;25154;-33.684;151.102;2022-11-15T11:03:04;5.85;;;1.45;;
39452;SDS011;25154;-33.684;151.102;2022-11-15T11:08:23;13.45;;;2.17;;
39452;SDS011;25154;-33.684;151.102;2022-11-15T11:13:27;9.68;;;1.40;;
39452;SDS011;25154;-33.684;151.102;2022-11-15T11:18:36;7.88;;;1.60;;
39452;SDS011;25154;-33.684;151.102;2022-11-15T11:50:14;3.83;;;1.20;;
39452;SDS011;25154;-33.684;151.102;2022-11-15T11:55:22;3.60;;;1.20;;
39452;SDS011;25154;-33.684;151.102;2022-11-15T12:00:35;6.30;;;1.58;;
39452;SDS011;25154;-33.684;151.102;2022-11-15T12:16:00;3.25;;;1.05;;
39452;SDS011;25154;-33.684;151.102;2022-11-15T12:26:40;3.97;;;0.93;;
39452;SDS011;25154;-33.684;151.102;2022-11-15T12:31:54;4.55;;;0.82;;
39452;SDS011;25154;-33.684;151.102;2022-11-15T12:37:00;2.28;;;0.88;;
39452;SDS011;25154;-33.684;151.102;2022-11-15T12:52:26;3.70;;;1.02;;
39452;SDS011;25154;-33.684;151.102;2022-11-15T12:57:30;2.35;;;0.70;;
39452;SDS011;25154;-33.684;151.102;2022-11-15T13:02:35;2.22;;;0.90;;
39452;SDS011;25154;-33.684;151.102;2022-11-15T13:12:52;3.85;;;0.60;;
39452;SDS011;25154;-33.684;151.102;2022-11-15T13:18:18;3.03;;;1.02;;
39452;SDS011;25154;-33.684;151.102;2022-11-15T13:23:21;3.22;;;0.77;;
39452;SDS011;25154;-33.684;151.102;2022-11-15T13:28:29;1.83;;;0.70;;
39452;SDS011;25154;-33.684;151.102;2022-11-15T13:33:36;2.22;;;0.60;;
39452;SDS011;25154;-33.684;151.102;2022-11-15T13:38:41;1.90;;;0.88;;
39452;SDS011;25154;-33.684;151.102;2022-11-15T13:43:44;1.60;;;0.60;;
39452;SDS011;25154;-33.684;151.102;2022-11-15T13:48:50;3.28;;;0.75;;
39452;SDS011;25154;-33.684;151.102;2022-11-15T13:53:56;2.47;;;0.63;;
39452;SDS011;25154;-33.684;151.102;2022-11-15T13:59:24;2.40;;;0.73;;
39452;SDS011;25154;-33.684;151.102;2022-11-15T14:04:31;3.20;;;0.80;;
39452;SDS011;25154;-33.684;151.102;2022-11-15T14:09:37;6.18;;;0.93;;
39452;SDS011;25154;-33.684;151.102;2022-11-15T14:14:46;2.22;;;0.68;;
39452;SDS011;25154;-33.684;151.102;2022-11-15T14:19:49;3.63;;;0.70;;
39452;SDS011;25154;-33.684;151.102;2022-11-15T14:30:19;1.85;;;0.65;;
39452;SDS011;25154;-33.684;151.102;2022-11-15T14:35:23;1.00;;;0.75;;
39452;SDS011;25154;-33.684;151.102;2022-11-15T14:40:25;1.38;;;0.73;;
39452;SDS011;25154;-33.684;151.102;2022-11-15T14:45:27;1.33;;;0.60;;
39452;SDS011;25154;-33.684;151.102;2022-11-15T14:50:30;2.88;;;1.05;;
39452;SDS011;25154;-33.684;151.102;2022-11-15T14:55:34;1.42;;;0.77;;
39452;SDS011;25154;-33.684;151.102;2022-11-15T15:00:38;2.17;;;0.85;;
39452;SDS011;25154;-33.684;151.102;2022-11-15T15:05:42;4.20;;;0.75;;
39452;SDS011;25154;-33.684;151.102;2022-11-15T15:10:45;2.95;;;1.05;;
39452;SDS011;25154;-33.684;151.102;2022-11-15T15:15:48;2.50;;;0.80;;
39452;SDS011;25154;-33.684;151.102;2022-11-15T15:20:55;2.17;;;0.80;;
39452;SDS011;25154;-33.684;151.102;2022-11-15T15:26:07;1.93;;;0.77;;
39452;SDS011;25154;-33.684;151.102;2022-11-15T15:31:10;3.45;;;0.88;;
39452;SDS011;25154;-33.684;151.102;2022-11-15T15:36:13;2.70;;;0.80;;
39452;SDS011;25154;-33.684;151.102;2022-11-15T15:41:18;2.50;;;0.82;;
39452;SDS011;25154;-33.684;151.102;2022-11-15T15:46:21;3.13;;;0.90;;
39452;SDS011;25154;-33.684;151.102;2022-11-15T15:51:24;1.70;;;0.80;;
39452;SDS011;25154;-33.684;151.102;2022-11-15T15:56:26;2.65;;;0.77;;
39452;SDS011;25154;-33.684;151.102;2022-11-15T16:01:28;3.55;;;0.73;;
39452;SDS011;25154;-33.684;151.102;2022-11-15T16:06:35;3.17;;;0.80;;
39452;SDS011;25154;-33.684;151.102;2022-11-15T16:11:45;4.53;;;0.80;;
39452;SDS011;25154;-33.684;151.102;2022-11-15T16:16:47;3.67;;;0.75;;
39452;SDS011;25154;-33.684;151.102;2022-11-15T16:21:50;2.17;;;0.90;;
39452;SDS011;25154;-33.684;151.102;2022-11-15T16:26:55;2.78;;;1.23;;
39452;SDS011;25154;-33.684;151.102;2022-11-15T16:31:57;3.17;;;0.88;;
39452;SDS011;25154;-33.684;151.102;2022-11-15T16:37:00;2.50;;;0.85;;
39452;SDS011;25154;-33.684;151.102;2022-11-15T16:42:02;4.53;;;0.90;;
39452;SDS011;25154;-33.684;151.102;2022-11-15T16:47:04;2.33;;;0.80;;
39452;SDS011;25154;-33.684;151.102;2022-11-15T16:52:13;3.15;;;0.77;;
39452;SDS011;25154;-33.684;151.102;2022-11-15T16:57:15;2.47;;;0.73;;
39452;SDS011;25154;-33.684;151.102;2022-11-15T17:02:17;2.00;;;0.85;;
39452;SDS011;25154;-33.684;151.102;2022-11-15T17:07:20;2.03;;;0.90;;
39452;SDS011;25154;-33.684;151.102;2022-11-15T17:12:23;1.55;;;0.73;;
39452;SDS011;25154;-33.684;151.102;2022-11-15T17:17:25;2.38;;;0.90;;
39452;SDS011;25154;-33.684;151.102;2022-11-15T17:22:28;2.38;;;1.00;;
39452;SDS011;25154;-33.684;151.102;2022-11-15T17:27:30;1.88;;;0.75;;
39452;SDS011;25154;-33.684;151.102;2022-11-15T17:32:36;2.15;;;0.80;;
39452;SDS011;25154;-33.684;151.102;2022-11-15T17:37:38;1.58;;;0.68;;
39452;SDS011;25154;-33.684;151.102;2022-11-15T17:42:40;6.50;;;1.02;;
39452;SDS011;25154;-33.684;151.102;2022-11-15T17:47:43;3.60;;;0.80;;
39452;SDS011;25154;-33.684;151.102;2022-11-15T17:52:45;3.50;;;0.85;;
39452;SDS011;25154;-33.684;151.102;2022-11-15T17:57:47;1.73;;;0.90;;
39452;SDS011;25154;-33.684;151.102;2022-11-15T18:02:49;2.67;;;1.05;;
39452;SDS011;25154;-33.684;151.102;2022-11-15T18:07:52;2.38;;;0.68;;
39452;SDS011;25154;-33.684;151.102;2022-11-15T18:12:56;2.40;;;0.63;;
39452;SDS011;25154;-33.684;151.102;2022-11-15T18:17:59;2.30;;;0.90;;
39452;SDS011;25154;-33.684;151.102;2022-11-15T18:23:03;2.97;;;0.90;;
39452;SDS011;25154;-33.684;151.102;2022-11-15T18:28:07;3.08;;;1.33;;
39452;SDS011;25154;-33.684;151.102;2022-11-15T18:33:09;2.97;;;1.00;;
39452;SDS011;25154;-33.684;151.102;2022-11-15T18:38:11;3.95;;;1.05;;
39452;SDS011;25154;-33.684;151.102;2022-11-15T18:43:14;2.78;;;1.00;;
39452;SDS011;25154;-33.684;151.102;2022-11-15T18:48:17;3.47;;;1.08;;
39452;SDS011;25154;-33.684;151.102;2022-11-15T18:53:19;9.07;;;1.38;;
39452;SDS011;25154;-33.684;151.102;2022-11-15T18:58:21;6.85;;;0.80;;
39452;SDS011;25154;-33.684;151.102;2022-11-15T19:03:24;5.68;;;0.70;;
39452;SDS011;25154;-33.684;151.102;2022-11-15T19:08:26;3.92;;;0.77;;
39452;SDS011;25154;-33.684;151.102;2022-11-15T19:13:28;2.80;;;0.73;;
39452;SDS011;25154;-33.684;151.102;2022-11-15T19:18:32;2.53;;;0.85;;
39452;SDS011;25154;-33.684;151.102;2022-11-15T19:23:35;3.15;;;0.60;;
39452;SDS011;25154;-33.684;151.102;2022-11-15T19:28:40;4.57;;;0.88;;
39452;SDS011;25154;-33.684;151.102;2022-11-15T19:33:44;5.13;;;1.10;;
39452;SDS011;25154;-33.684;151.102;2022-11-15T19:38:49;2.45;;;0.70;;
39452;SDS011;25154;-33.684;151.102;2022-11-15T19:43:52;3.40;;;1.00;;
39452;SDS011;25154;-33.684;151.102;2022-11-15T19:48:56;3.63;;;0.85;;
39452;SDS011;25154;-33.684;151.102;2022-11-15T19:54:00;1.20;;;0.70;;
39452;SDS011;25154;-33.684;151.102;2022-11-15T19:59:08;1.67;;;0.93;;
39452;SDS011;25154;-33.684;151.102;2022-11-15T20:04:13;2.92;;;0.98;;
39452;SDS011;25154;-33.684;151.102;2022-11-15T20:09:16;1.25;;;0.57;;
39452;SDS011;25154;-33.684;151.102;2022-11-15T20:14:20;1.75;;;0.60;;
39452;SDS011;25154;-33.684;151.102;2022-11-15T20:19:25;3.22;;;0.80;;
39452;SDS011;25154;-33.684;151.102;2022-11-15T20:24:29;2.92;;;0.80;;
39452;SDS011;25154;-33.684;151.102;2022-11-15T20:29:32;3.72;;;0.85;;
39452;SDS011;25154;-33.684;151.102;2022-11-15T20:34:34;3.10;;;0.80;;
39452;SDS011;25154;-33.684;151.102;2022-11-15T20:39:37;1.08;;;0.63;;
39452;SDS011;25154;-33.684;151.102;2022-11-15T20:44:40;2.08;;;0.98;;
39452;SDS011;25154;-33.684;151.102;2022-11-15T20:49:43;4.03;;;1.35;;
39452;SDS011;25154;-33.684;151.102;2022-11-15T20:54:45;1.75;;;0.80;;
39452;SDS011;25154;-33.684;151.102;2022-11-15T20:59:49;2.95;;;0.73;;
39452;SDS011;25154;-33.684;151.102;2022-11-15T21:04:51;0.80;;;0.50;;
39452;SDS011;25154;-33.684;151.102;2022-11-15T21:09:54;4.65;;;1.27;;
39452;SDS011;25154;-33.684;151.102;2022-11-15T21:15:14;3.70;;;0.90;;
39452;SDS011;25154;-33.684;151.102;2022-11-15T21:20:16;1.80;;;0.63;;
39452;SDS011;25154;-33.684;151.102;2022-11-15T21:25:19;2.35;;;0.80;;
39452;SDS011;25154;-33.684;151.102;2022-11-15T21:30:21;1.60;;;0.65;;
39452;SDS011;25154;-33.684;151.102;2022-11-15T21:35:23;2.00;;;0.90;;
39452;SDS011;25154;-33.684;151.102;2022-11-15T21:40:26;2.03;;;0.65;;
39452;SDS011;25154;-33.684;151.102;2022-11-15T21:45:28;2.17;;;0.75;;
39452;SDS011;25154;-33.684;151.102;2022-11-15T21:50:30;1.55;;;0.77;;
39452;SDS011;25154;-33.684;151.102;2022-11-15T21:55:33;6.25;;;1.13;;
39452;SDS011;25154;-33.684;151.102;2022-11-15T22:00:38;4.47;;;0.80;;
39452;SDS011;25154;-33.684;151.102;2022-11-15T22:06:00;4.30;;;0.90;;
39452;SDS011;25154;-33.684;151.102;2022-11-15T22:11:03;2.15;;;0.65;;
39452;SDS011;25154;-33.684;151.102;2022-11-15T22:16:06;3.97;;;0.70;;
39452;SDS011;25154;-33.684;151.102;2022-11-15T22:21:11;1.85;;;0.60;;
39452;SDS011;25154;-33.684;151.102;2022-11-15T22:26:15;4.97;;;1.08;;
39452;SDS011;25154;-33.684;151.102;2022-11-15T22:31:19;1.48;;;0.68;;
39452;SDS011;25154;-33.684;151.102;2022-11-15T22:36:22;4.93;;;1.08;;
39452;SDS011;25154;-33.684;151.102;2022-11-15T22:41:25;5.70;;;0.70;;
39452;SDS011;25154;-33.684;151.102;2022-11-15T22:46:27;1.20;;;0.65;;
39452;SDS011;25154;-33.684;151.102;2022-11-15T22:51:30;1.23;;;0.57;;
39452;SDS011;25154;-33.684;151.102;2022-11-15T22:56:33;2.55;;;0.90;;
39452;SDS011;25154;-33.684;151.102;2022-11-15T23:01:36;1.75;;;0.55;;
39452;SDS011;25154;-33.684;151.102;2022-11-15T23:06:39;5.93;;;1.10;;
39452;SDS011;25154;-33.684;151.102;2022-11-15T23:11:43;2.03;;;0.80;;
39452;SDS011;25154;-33.684;151.102;2022-11-15T23:17:04;1.38;;;0.55;;
39452;SDS011;25154;-33.684;151.102;2022-11-15T23:22:06;2.63;;;0.70;;
39452;SDS011;25154;-33.684;151.102;2022-11-15T23:27:27;1.80;;;0.63;;
39452;SDS011;25154;-33.684;151.102;2022-11-15T23:32:30;2.08;;;0.80;;
39452;SDS011;25154;-33.684;151.102;2022-11-15T23:37:51;1.38;;;0.50;;
39452;SDS011;25154;-33.684;151.102;2022-11-15T23:42:54;1.27;;;0.60;;
39452;SDS011;25154;-33.684;151.102;2022-11-15T23:47:57;2.05;;;0.70;;
39452;SDS011;25154;-33.684;151.102;2022-11-15T23:53:00;1.77;;;0.70;;
39452;SDS011;25154;-33.684;151.102;2022-11-15T23:58:03;2.65;;;0.80;;
